createdAt,value
2023-01-12T00:00:28.648Z,99.99
2023-01-12T00:01:28.661Z,99.99
2023-01-12T00:02:28.689Z,99.99
2023-01-12T00:03:28.591Z,99.99
2023-01-12T00:04:28.593Z,99.99
2023-01-12T00:05:28.561Z,99.99
2023-01-12T00:06:28.557Z,99.99
2023-01-12T00:07:28.538Z,99.99
2023-01-12T00:08:28.550Z,99.99
2023-01-12T00:09:28.528Z,99.99
2023-01-12T00:10:28.501Z,99.99
2023-01-12T00:11:28.499Z,99.99
2023-01-12T00:12:28.482Z,99.99
2023-01-12T00:13:28.476Z,99.99
2023-01-12T00:14:28.502Z,99.99
2023-01-12T00:15:28.452Z,99.99
2023-01-12T00:16:28.475Z,99.99
2023-01-12T00:17:28.442Z,99.99
2023-01-12T00:18:28.434Z,99.99
2023-01-12T00:19:28.418Z,99.99
2023-01-12T00:20:28.440Z,99.99
2023-01-12T00:21:28.390Z,99.99
2023-01-12T00:22:28.398Z,99.99
2023-01-12T00:23:28.375Z,99.99
2023-01-12T00:24:28.350Z,99.99
2023-01-12T00:25:28.376Z,99.99
2023-01-12T00:26:28.343Z,99.99
2023-01-12T00:27:28.333Z,99.99
2023-01-12T00:28:28.326Z,99.99
2023-01-12T00:29:28.308Z,99.99
2023-01-12T00:30:28.287Z,99.99
2023-01-12T00:31:28.386Z,99.99
2023-01-12T00:32:28.272Z,99.99
2023-01-12T00:33:28.272Z,99.99
2023-01-12T00:34:29.730Z,99.99
2023-01-12T00:35:28.237Z,99.99
2023-01-12T00:36:28.222Z,99.99
2023-01-12T00:37:28.220Z,99.99
2023-01-12T00:38:28.221Z,99.99
2023-01-12T00:39:28.263Z,99.99
2023-01-12T00:40:28.185Z,99.99
2023-01-12T00:41:28.173Z,99.99
2023-01-12T00:42:28.159Z,99.99
2023-01-12T00:43:28.154Z,99.99
2023-01-12T00:44:28.150Z,99.99
2023-01-12T00:45:28.184Z,99.99
2023-01-12T00:46:28.179Z,99.99
2023-01-12T00:47:28.116Z,99.99
2023-01-12T00:48:28.097Z,99.99
2023-01-12T00:49:28.088Z,99.99
2023-01-12T00:50:28.117Z,99.99
2023-01-12T00:51:28.122Z,99.99
2023-01-12T00:52:31.139Z,99.99
2023-01-12T00:53:28.045Z,99.99
2023-01-12T00:54:28.035Z,99.99
2023-01-12T00:55:28.035Z,99.99
2023-01-12T00:56:28.023Z,99.99
2023-01-12T00:57:28.136Z,99.99
2023-01-12T00:58:27.998Z,99.99
2023-01-12T00:59:27.983Z,99.99
2023-01-12T01:00:27.968Z,99.99
2023-01-12T01:01:28.036Z,99.99
2023-01-12T01:02:28.039Z,99.99
2023-01-12T01:03:27.982Z,99.99
2023-01-12T01:04:27.927Z,99.99
2023-01-12T01:05:27.919Z,99.99
2023-01-12T01:06:27.927Z,99.99
2023-01-12T01:07:27.914Z,99.99
2023-01-12T01:08:27.879Z,99.99
2023-01-12T01:09:27.899Z,99.99
2023-01-12T01:10:27.858Z,99.99
2023-01-12T01:11:27.850Z,99.99
2023-01-12T01:12:27.839Z,99.99
2023-01-12T01:13:27.842Z,99.99
2023-01-12T01:14:27.814Z,99.99
2023-01-12T01:15:27.854Z,99.99
2023-01-12T01:16:27.795Z,99.99
2023-01-12T01:17:27.788Z,99.99
2023-01-12T01:18:27.794Z,99.99
2023-01-12T01:19:27.773Z,99.99
2023-01-12T01:20:27.751Z,99.99
2023-01-12T01:21:27.785Z,99.99
2023-01-12T01:22:27.767Z,99.99
2023-01-12T01:23:27.727Z,99.99
2023-01-12T01:24:27.735Z,99.99
2023-01-12T01:25:27.703Z,99.99
2023-01-12T01:26:27.687Z,99.99
2023-01-12T01:27:27.722Z,99.99
2023-01-12T01:28:27.680Z,99.99
2023-01-12T01:29:27.670Z,99.99
2023-01-12T01:30:27.645Z,99.99
2023-01-12T01:31:27.672Z,99.99
2023-01-12T01:32:27.623Z,99.99
2023-01-12T01:33:27.651Z,99.99
2023-01-12T01:34:27.622Z,99.99
2023-01-12T01:35:27.592Z,99.99
2023-01-12T01:36:27.580Z,99.99
2023-01-12T01:37:27.591Z,99.99
2023-01-12T01:38:27.623Z,99.99
2023-01-12T01:39:27.593Z,99.99
2023-01-12T01:40:27.546Z,99.99
2023-01-12T01:41:27.535Z,99.99
2023-01-12T01:42:27.513Z,99.99
2023-01-12T01:43:27.515Z,99.99
2023-01-12T01:44:27.491Z,99.99
2023-01-12T01:45:27.518Z,99.99
2023-01-12T01:46:27.523Z,99.99
2023-01-12T01:47:27.471Z,99.99
2023-01-12T01:48:27.450Z,99.99
2023-01-12T01:49:27.441Z,99.99
2023-01-12T01:50:27.524Z,99.99
2023-01-12T01:51:27.445Z,99.99
2023-01-12T01:52:27.417Z,99.99
2023-01-12T01:53:27.393Z,99.99
2023-01-12T01:54:27.400Z,99.99
2023-01-12T01:55:27.375Z,99.99
2023-01-12T01:56:27.371Z,99.99
2023-01-12T01:57:27.381Z,99.99
2023-01-12T01:58:27.338Z,99.99
2023-01-12T01:59:27.351Z,99.99
2023-01-12T02:00:27.317Z,99.99
2023-01-12T02:01:27.454Z,99.99
2023-01-12T02:02:27.381Z,99.99
2023-01-12T02:03:27.331Z,99.99
2023-01-12T02:04:27.291Z,99.99
2023-01-12T02:05:27.282Z,99.99
2023-01-12T02:06:27.254Z,99.99
2023-01-12T02:07:27.241Z,99.99
2023-01-12T02:08:27.232Z,99.99
2023-01-12T02:09:27.249Z,99.99
2023-01-12T02:10:27.241Z,99.99
2023-01-12T02:11:27.200Z,99.99
2023-01-12T02:12:27.195Z,99.99
2023-01-12T02:13:27.175Z,99.99
2023-01-12T02:14:27.165Z,99.99
2023-01-12T02:15:27.195Z,99.99
2023-01-12T02:16:27.241Z,99.99
2023-01-12T02:17:27.144Z,99.99
2023-01-12T02:18:27.119Z,99.99
2023-01-12T02:19:27.112Z,99.99
2023-01-12T02:20:27.104Z,99.99
2023-01-12T02:21:27.117Z,99.99
2023-01-12T02:22:27.080Z,99.99
2023-01-12T02:23:27.079Z,99.99
2023-01-12T02:24:27.055Z,99.99
2023-01-12T02:25:27.043Z,99.99
2023-01-12T02:26:27.078Z,99.99
2023-01-12T02:27:27.050Z,99.99
2023-01-12T02:28:27.010Z,99.99
2023-01-12T02:29:27.012Z,99.99
2023-01-12T02:30:26.985Z,99.99
2023-01-12T02:31:27.066Z,99.99
2023-01-12T02:32:26.972Z,99.99
2023-01-12T02:33:26.984Z,99.99
2023-01-12T02:34:26.953Z,99.99
2023-01-12T02:35:26.963Z,99.99
2023-01-12T02:36:26.929Z,99.99
2023-01-12T02:37:26.911Z,99.99
2023-01-12T02:38:26.906Z,99.99
2023-01-12T02:39:26.925Z,99.99
2023-01-12T02:40:26.914Z,99.99
2023-01-12T02:41:26.867Z,99.99
2023-01-12T02:42:26.879Z,99.99
2023-01-12T02:43:26.846Z,99.99
2023-01-12T02:44:26.846Z,99.99
2023-01-12T02:45:26.970Z,99.99
2023-01-12T02:46:26.856Z,99.99
2023-01-12T02:47:26.801Z,99.99
2023-01-12T02:48:26.793Z,99.99
2023-01-12T02:49:26.780Z,99.99
2023-01-12T02:50:26.775Z,99.99
2023-01-12T02:51:26.907Z,99.99
2023-01-12T02:52:26.752Z,99.99
2023-01-12T02:53:26.736Z,99.99
2023-01-12T02:54:26.731Z,99.99
2023-01-12T02:55:26.714Z,99.99
2023-01-12T02:56:26.711Z,99.99
2023-01-12T02:57:26.752Z,99.99
2023-01-12T02:58:26.719Z,99.99
2023-01-12T02:59:26.696Z,99.99
2023-01-12T03:00:26.719Z,99.99
2023-01-12T03:01:26.834Z,99.99
2023-01-12T03:02:26.655Z,99.99
2023-01-12T03:03:26.665Z,99.99
2023-01-12T03:04:26.630Z,99.99
2023-01-12T03:05:26.616Z,99.99
2023-01-12T03:06:26.605Z,99.99
2023-01-12T03:07:26.595Z,99.99
2023-01-12T03:08:26.596Z,99.99
2023-01-12T03:09:26.631Z,99.99
2023-01-12T03:10:26.573Z,99.99
2023-01-12T03:11:26.550Z,99.99
2023-01-12T03:12:26.541Z,99.99
2023-01-12T03:13:26.528Z,99.99
2023-01-12T03:14:26.552Z,99.99
2023-01-12T03:15:26.540Z,99.99
2023-01-12T03:16:26.584Z,99.99
2023-01-12T03:17:26.485Z,99.99
2023-01-12T03:18:26.478Z,99.99
2023-01-12T03:19:26.478Z,99.99
2023-01-12T03:20:26.458Z,99.99
2023-01-12T03:21:26.487Z,99.99
2023-01-12T03:22:26.440Z,99.99
2023-01-12T03:23:26.424Z,99.99
2023-01-12T03:24:26.419Z,99.99
2023-01-12T03:25:26.421Z,99.99
2023-01-12T03:26:26.397Z,99.99
2023-01-12T03:27:26.428Z,99.99
2023-01-12T03:28:26.375Z,99.99
2023-01-12T03:29:26.388Z,99.99
2023-01-12T03:30:26.509Z,99.99
2023-01-12T03:31:26.377Z,99.99
2023-01-12T03:32:26.335Z,99.99
2023-01-12T03:33:26.384Z,99.99
2023-01-12T03:34:26.316Z,99.99
2023-01-12T03:35:26.312Z,99.99
2023-01-12T03:36:26.291Z,99.99
2023-01-12T03:37:26.284Z,99.99
2023-01-12T03:38:26.273Z,99.99
2023-01-12T03:39:26.303Z,99.99
2023-01-12T03:40:26.261Z,99.99
2023-01-12T03:41:26.236Z,99.99
2023-01-12T03:42:26.232Z,99.99
2023-01-12T03:43:26.213Z,99.99
2023-01-12T03:44:26.208Z,99.99
2023-01-12T03:45:26.246Z,99.99
2023-01-12T03:46:26.260Z,99.99
2023-01-12T03:47:26.175Z,99.99
2023-01-12T03:48:26.165Z,99.99
2023-01-12T03:49:26.154Z,99.99
2023-01-12T03:50:26.143Z,99.99
2023-01-12T03:51:26.194Z,99.99
2023-01-12T03:52:26.140Z,99.99
2023-01-12T03:53:26.109Z,99.99
2023-01-12T03:54:26.116Z,99.99
2023-01-12T03:55:26.091Z,99.99
2023-01-12T03:56:26.191Z,99.99
2023-01-12T03:57:26.107Z,99.99
2023-01-12T03:58:26.059Z,99.99
2023-01-12T03:59:26.049Z,99.99
2023-01-12T04:00:26.037Z,99.99
2023-01-12T04:01:26.076Z,99.99
2023-01-12T04:02:26.055Z,99.99
2023-01-12T04:03:26.116Z,99.99
2023-01-12T04:04:25.994Z,99.99
2023-01-12T04:05:25.984Z,99.99
2023-01-12T04:06:25.977Z,99.99
2023-01-12T04:07:25.965Z,99.99
2023-01-12T04:08:25.986Z,99.99
2023-01-12T04:09:26.014Z,99.99
2023-01-12T04:10:25.947Z,99.99
2023-01-12T04:11:25.946Z,99.99
2023-01-12T04:12:26.008Z,99.99
2023-01-12T04:13:25.899Z,99.99
2023-01-12T04:14:25.902Z,99.99
2023-01-12T04:15:25.910Z,99.99
2023-01-12T04:16:25.931Z,99.99
2023-01-12T04:17:25.857Z,99.99
2023-01-12T04:18:25.884Z,99.99
2023-01-12T04:19:25.858Z,99.99
2023-01-12T04:20:25.843Z,99.99
2023-01-12T04:21:25.857Z,99.99
2023-01-12T04:22:25.808Z,99.99
2023-01-12T04:23:25.799Z,99.99
2023-01-12T04:24:25.798Z,99.99
2023-01-12T04:25:25.772Z,99.99
2023-01-12T04:26:25.766Z,99.99
2023-01-12T04:27:25.797Z,99.99
2023-01-12T04:28:25.743Z,99.99
2023-01-12T04:29:25.731Z,99.99
2023-01-12T04:30:25.735Z,99.99
2023-01-12T04:31:25.743Z,99.99
2023-01-12T04:32:25.705Z,99.99
2023-01-12T04:33:25.692Z,99.99
2023-01-12T04:34:25.701Z,99.99
2023-01-12T04:35:25.666Z,99.99
2023-01-12T04:36:25.667Z,99.99
2023-01-12T04:37:25.644Z,99.99
2023-01-12T04:38:25.636Z,99.99
2023-01-12T04:39:25.622Z,99.99
2023-01-12T04:40:25.615Z,99.99
2023-01-12T04:41:25.702Z,99.99
2023-01-12T04:42:25.596Z,99.99
2023-01-12T04:43:25.581Z,99.99
2023-01-12T04:44:25.574Z,99.99
2023-01-12T04:45:25.558Z,99.99
2023-01-12T04:46:25.564Z,99.99
2023-01-12T04:47:25.597Z,99.99
2023-01-12T04:48:25.529Z,99.99
2023-01-12T04:49:25.521Z,99.99
2023-01-12T04:50:25.541Z,99.99
2023-01-12T04:51:25.495Z,99.99
2023-01-12T04:52:25.489Z,99.99
2023-01-12T04:53:25.533Z,99.99
2023-01-12T04:54:25.468Z,99.99
2023-01-12T04:55:25.453Z,99.99
2023-01-12T04:56:25.462Z,99.99
2023-01-12T04:57:25.430Z,99.99
2023-01-12T04:58:25.423Z,99.99
2023-01-12T04:59:25.445Z,99.99
2023-01-12T05:00:25.407Z,99.99
2023-01-12T05:01:25.547Z,99.99
2023-01-12T05:02:25.490Z,99.99
2023-01-12T05:03:25.367Z,99.99
2023-01-12T05:04:25.389Z,99.99
2023-01-12T05:05:25.385Z,99.99
2023-01-12T05:06:25.357Z,99.99
2023-01-12T05:07:25.329Z,99.99
2023-01-12T05:08:25.327Z,99.99
2023-01-12T05:09:25.304Z,99.99
2023-01-12T05:10:25.295Z,99.99
2023-01-12T05:11:32.815Z,99.99
2023-01-12T05:12:32.796Z,99.99
2023-01-12T05:13:32.802Z,99.99
2023-01-12T05:14:32.813Z,99.99
2023-01-12T05:15:25.242Z,99.99
2023-01-12T05:16:32.840Z,99.99
2023-01-12T05:17:25.218Z,99.99
2023-01-12T05:18:32.742Z,99.99
2023-01-12T05:19:32.737Z,99.99
2023-01-12T05:20:25.191Z,99.99
2023-01-12T05:21:25.179Z,99.99
2023-01-12T05:22:25.251Z,99.99
2023-01-12T05:23:25.159Z,99.99
2023-01-12T05:24:25.169Z,99.99
2023-01-12T05:25:25.149Z,99.99
2023-01-12T05:26:25.129Z,99.99
2023-01-12T05:27:25.122Z,99.99
2023-01-12T05:28:25.109Z,99.99
2023-01-12T05:29:25.096Z,99.99
2023-01-12T05:30:25.095Z,99.99
2023-01-12T05:31:25.071Z,99.99
2023-01-12T05:32:25.083Z,99.99
2023-01-12T05:33:25.066Z,99.99
2023-01-12T05:34:25.067Z,99.99
2023-01-12T05:35:25.033Z,99.99
2023-01-12T05:36:26.518Z,99.99
2023-01-12T05:37:25.007Z,99.99
2023-01-12T05:38:25.040Z,99.99
2023-01-12T05:39:24.986Z,99.99
2023-01-12T05:40:24.984Z,99.99
2023-01-12T05:41:24.970Z,99.99
2023-01-12T05:42:24.967Z,99.99
2023-01-12T05:43:24.956Z,99.99
2023-01-12T05:44:24.937Z,99.99
2023-01-12T05:45:24.924Z,99.99
2023-01-12T05:46:25.103Z,99.99
2023-01-12T05:47:24.900Z,99.99
2023-01-12T05:48:24.892Z,99.99
2023-01-12T05:49:24.948Z,99.99
2023-01-12T05:50:24.895Z,99.99
2023-01-12T05:51:24.917Z,99.99
2023-01-12T05:52:24.859Z,99.99
2023-01-12T05:53:24.837Z,99.99
2023-01-12T05:54:24.900Z,99.99
2023-01-12T05:55:24.875Z,99.99
2023-01-12T05:56:24.851Z,99.99
2023-01-12T05:57:24.813Z,99.99
2023-01-12T05:58:24.788Z,99.99
2023-01-12T05:59:24.778Z,99.99
2023-01-12T06:00:24.773Z,99.99
2023-01-12T06:01:24.828Z,99.99
2023-01-12T06:02:24.829Z,99.99
2023-01-12T06:03:24.756Z,99.99
2023-01-12T06:04:24.797Z,99.99
2023-01-12T06:05:24.721Z,99.99
2023-01-12T06:06:24.702Z,99.99
2023-01-12T06:07:24.763Z,99.99
2023-01-12T06:08:24.683Z,99.99
2023-01-12T06:09:24.779Z,99.99
2023-01-12T06:10:24.688Z,99.99
2023-01-12T06:11:24.647Z,99.99
2023-01-12T06:12:24.637Z,99.99
2023-01-12T06:13:24.673Z,99.99
2023-01-12T06:14:24.628Z,99.99
2023-01-12T06:15:24.616Z,99.99
2023-01-12T06:16:24.637Z,99.99
2023-01-12T06:17:24.583Z,99.99
2023-01-12T06:18:24.576Z,99.99
2023-01-12T06:19:24.572Z,99.99
2023-01-12T06:20:24.588Z,99.99
2023-01-12T06:21:24.541Z,99.99
2023-01-12T06:22:24.535Z,99.99
2023-01-12T06:23:35.354Z,99.99
2023-01-12T06:24:25.512Z,99.99
2023-01-12T06:25:24.497Z,99.99
2023-01-12T06:26:24.543Z,99.99
2023-01-12T06:27:24.491Z,99.99
2023-01-12T06:28:24.468Z,99.99
2023-01-12T06:29:24.474Z,99.99
2023-01-12T06:30:24.452Z,99.99
2023-01-12T06:31:24.481Z,99.99
2023-01-12T06:32:24.481Z,99.99
2023-01-12T06:33:24.414Z,99.99
2023-01-12T06:34:24.422Z,99.99
2023-01-12T06:35:24.419Z,99.99
2023-01-12T06:36:24.398Z,99.99
2023-01-12T06:37:24.374Z,99.99
2023-01-12T06:38:24.363Z,99.99
2023-01-12T06:39:24.356Z,99.99
2023-01-12T06:40:24.350Z,99.99
2023-01-12T06:41:24.333Z,99.99
2023-01-12T06:42:24.360Z,99.99
2023-01-12T06:43:24.316Z,99.99
2023-01-12T06:44:24.310Z,99.99
2023-01-12T06:45:24.290Z,99.99
2023-01-12T06:46:24.311Z,99.99
2023-01-12T06:47:24.269Z,99.99
2023-01-12T06:48:24.255Z,99.99
2023-01-12T06:49:24.257Z,99.99
2023-01-12T06:50:24.236Z,99.99
2023-01-12T06:51:24.294Z,99.99
2023-01-12T06:52:24.228Z,99.99
2023-01-12T06:53:24.266Z,99.99
2023-01-12T06:54:24.201Z,99.99
2023-01-12T06:55:24.207Z,99.99
2023-01-12T06:56:24.235Z,99.99
2023-01-12T06:57:24.167Z,99.99
2023-01-12T06:58:24.172Z,99.99
2023-01-12T06:59:24.145Z,99.99
2023-01-12T07:00:24.135Z,99.99
2023-01-12T07:01:24.242Z,99.99
2023-01-12T07:02:24.187Z,99.99
2023-01-12T07:03:24.113Z,99.99
2023-01-12T07:04:24.126Z,99.99
2023-01-12T07:05:24.089Z,99.99
2023-01-12T07:06:24.080Z,99.99
2023-01-12T07:07:24.075Z,99.99
2023-01-12T07:08:24.065Z,99.99
2023-01-12T07:09:24.053Z,99.99
2023-01-12T07:10:24.028Z,99.99
2023-01-12T07:11:24.018Z,99.99
2023-01-12T07:12:24.016Z,99.99
2023-01-12T07:13:24.042Z,99.99
2023-01-12T07:14:24.022Z,99.99
2023-01-12T07:15:23.993Z,99.99
2023-01-12T07:16:24.064Z,99.99
2023-01-12T07:17:23.963Z,99.99
2023-01-12T07:18:24.017Z,99.99
2023-01-12T07:19:23.945Z,99.99
2023-01-12T07:20:23.985Z,99.99
2023-01-12T07:21:23.928Z,99.99
2023-01-12T07:22:23.944Z,99.99
2023-01-12T07:23:23.895Z,99.99
2023-01-12T07:24:23.937Z,99.99
2023-01-12T07:25:23.874Z,99.99
2023-01-12T07:26:23.912Z,99.99
2023-01-12T07:27:23.870Z,99.99
2023-01-12T07:28:23.912Z,99.99
2023-01-12T07:29:23.848Z,99.99
2023-01-12T07:30:23.844Z,99.99
2023-01-12T07:31:23.861Z,99.99
2023-01-12T07:32:23.808Z,99.99
2023-01-12T07:33:23.798Z,99.99
2023-01-12T07:34:23.784Z,99.99
2023-01-12T07:35:23.779Z,99.99
2023-01-12T07:36:23.758Z,99.99
2023-01-12T07:37:23.759Z,99.99
2023-01-12T07:38:23.733Z,99.99
2023-01-12T07:39:23.736Z,99.99
2023-01-12T07:40:23.716Z,99.99
2023-01-12T07:41:23.775Z,99.99
2023-01-12T07:42:23.759Z,99.93
2023-01-12T07:43:23.682Z,99.99
2023-01-12T07:44:23.683Z,99.99
2023-01-12T07:45:23.677Z,99.99
2023-01-12T07:46:23.756Z,99.99
2023-01-12T07:47:23.695Z,99.99
2023-01-12T07:48:23.626Z,99.99
2023-01-12T07:49:23.633Z,99.99
2023-01-12T07:50:23.627Z,97.41
2023-01-12T07:51:23.597Z,97.57
2023-01-12T07:52:23.587Z,99.99
2023-01-12T07:53:23.636Z,99.99
2023-01-12T07:54:23.584Z,99.99
2023-01-12T07:55:23.564Z,99.99
2023-01-12T07:56:23.552Z,99.99
2023-01-12T07:57:23.543Z,99.99
2023-01-12T07:58:23.525Z,99.99
2023-01-12T07:59:23.579Z,99.99
2023-01-12T08:00:23.502Z,99.99
2023-01-12T08:01:23.644Z,99.99
2023-01-12T08:02:23.555Z,99.99
2023-01-12T08:03:23.474Z,99.99
2023-01-12T08:04:23.458Z,99.99
2023-01-12T08:05:23.526Z,99.99
2023-01-12T08:06:23.438Z,99.99
2023-01-12T08:07:23.432Z,99.99
2023-01-12T08:08:23.419Z,99.99
2023-01-12T08:09:23.417Z,99.99
2023-01-12T08:10:23.396Z,99.99
2023-01-12T08:11:23.423Z,99.99
2023-01-12T08:12:23.379Z,99.99
2023-01-12T08:13:23.384Z,99.99
2023-01-12T08:14:23.351Z,99.99
2023-01-12T08:15:23.361Z,99.99
2023-01-12T08:16:23.341Z,99.99
2023-01-12T08:17:23.370Z,99.99
2023-01-12T08:18:23.333Z,99.99
2023-01-12T08:19:23.301Z,99.99
2023-01-12T08:20:23.294Z,99.99
2023-01-12T08:21:23.290Z,99.99
2023-01-12T08:22:23.274Z,99.99
2023-01-12T08:23:23.299Z,99.99
2023-01-12T08:24:23.251Z,99.99
2023-01-12T08:25:23.238Z,99.99
2023-01-12T08:26:23.222Z,99.99
2023-01-12T08:27:23.233Z,99.99
2023-01-12T08:28:23.204Z,99.99
2023-01-12T08:29:23.247Z,99.99
2023-01-12T08:30:23.187Z,99.99
2023-01-12T08:31:23.195Z,99.99
2023-01-12T08:32:23.173Z,99.99
2023-01-12T08:33:23.166Z,99.99
2023-01-12T08:34:23.176Z,99.99
2023-01-12T08:35:23.198Z,99.99
2023-01-12T08:36:23.119Z,99.99
2023-01-12T08:37:23.106Z,99.99
2023-01-12T08:38:23.098Z,99.99
2023-01-12T08:39:23.104Z,99.99
2023-01-12T08:40:23.073Z,99.99
2023-01-12T08:41:23.120Z,99.99
2023-01-12T08:42:23.210Z,99.99
2023-01-12T08:43:23.059Z,99.99
2023-01-12T08:44:23.047Z,99.99
2023-01-12T08:45:23.024Z,99.99
2023-01-12T08:46:23.069Z,99.99
2023-01-12T08:47:23.065Z,99.99
2023-01-12T08:48:22.991Z,99.99
2023-01-12T08:49:24.384Z,99.99
2023-01-12T08:50:23.197Z,99.99
2023-01-12T08:51:22.961Z,99.99
2023-01-12T08:52:22.951Z,99.99
2023-01-12T08:53:22.996Z,99.99
2023-01-12T08:54:22.945Z,99.99
2023-01-12T08:55:22.915Z,99.99
2023-01-12T08:56:22.912Z,99.99
2023-01-12T08:57:22.901Z,99.99
2023-01-12T08:58:22.882Z,99.99
2023-01-12T08:59:22.973Z,99.99
2023-01-12T09:00:22.873Z,99.99
2023-01-12T09:01:23.065Z,99.99
2023-01-12T09:02:22.900Z,99.99
2023-01-12T09:03:22.832Z,99.99
2023-01-12T09:04:22.820Z,99.61
2023-01-12T09:05:22.890Z,99.08
2023-01-12T09:06:22.819Z,98.04
2023-01-12T09:07:22.792Z,98.14
2023-01-12T09:08:22.789Z,98.04
2023-01-12T09:09:22.769Z,99.30
2023-01-12T09:10:22.861Z,99.25
2023-01-12T09:11:22.787Z,99.71
2023-01-12T09:12:24.448Z,99.19
2023-01-12T09:13:22.727Z,99.99
2023-01-12T09:14:22.710Z,99.61
2023-01-12T09:15:22.702Z,99.99
2023-01-12T09:16:22.960Z,99.99
2023-01-12T09:17:22.740Z,99.99
2023-01-12T09:18:22.673Z,99.99
2023-01-12T09:19:22.670Z,99.99
2023-01-12T09:20:22.650Z,99.99
2023-01-12T09:21:22.642Z,99.88
2023-01-12T09:22:22.687Z,99.99
2023-01-12T09:23:22.713Z,99.99
2023-01-12T09:24:22.605Z,99.99
2023-01-12T09:25:22.599Z,98.16
2023-01-12T09:26:22.596Z,98.89
2023-01-12T09:27:22.575Z,98.68
2023-01-12T09:28:22.563Z,99.00
2023-01-12T09:29:22.604Z,98.32
2023-01-12T09:30:22.565Z,96.55
2023-01-12T09:31:22.602Z,96.29
2023-01-12T09:32:26.010Z,96.61
2023-01-12T09:33:24.146Z,97.96
2023-01-12T09:34:22.498Z,95.93
2023-01-12T09:35:22.547Z,94.68
2023-01-12T09:36:22.479Z,92.52
2023-01-12T09:37:22.490Z,92.63
2023-01-12T09:38:22.489Z,91.89
2023-01-12T09:39:27.756Z,91.16
2023-01-12T09:40:23.526Z,91.12
2023-01-12T09:41:22.492Z,92.79
2023-01-12T09:42:22.414Z,92.06
2023-01-12T09:43:22.413Z,91.71
2023-01-12T09:44:22.403Z,92.50
2023-01-12T09:45:22.388Z,88.34
2023-01-12T09:46:22.372Z,83.92
2023-01-12T09:47:22.428Z,83.01
2023-01-12T09:48:22.365Z,81.41
2023-01-12T09:49:22.345Z,79.18
2023-01-12T09:50:22.393Z,79.46
2023-01-12T09:51:22.321Z,78.00
2023-01-12T09:52:22.306Z,76.92
2023-01-12T09:53:22.349Z,75.60
2023-01-12T09:54:22.331Z,78.07
2023-01-12T09:55:22.280Z,78.86
2023-01-12T09:56:22.269Z,76.26
2023-01-12T09:57:28.736Z,76.23
2023-01-12T09:58:23.253Z,75.60
2023-01-12T09:59:22.281Z,77.61
2023-01-12T10:00:22.227Z,73.80
2023-01-12T10:01:29.146Z,73.94
2023-01-12T10:02:23.206Z,75.40
2023-01-12T10:03:22.307Z,75.26
2023-01-12T10:04:22.179Z,73.88
2023-01-12T10:05:26.005Z,72.08
2023-01-12T10:06:23.168Z,72.53
2023-01-12T10:07:22.152Z,73.84
2023-01-12T10:08:22.144Z,70.97
2023-01-12T10:09:22.128Z,68.70
2023-01-12T10:10:22.165Z,70.07
2023-01-12T10:11:22.152Z,68.65
2023-01-12T10:12:22.108Z,69.90
2023-01-12T10:13:22.088Z,69.90
2023-01-12T10:14:22.084Z,69.65
2023-01-12T10:15:22.065Z,70.28
2023-01-12T10:16:22.092Z,70.79
2023-01-12T10:17:22.104Z,69.86
2023-01-12T10:18:22.030Z,70.17
2023-01-12T10:19:22.022Z,70.90
2023-01-12T10:20:22.056Z,73.63
2023-01-12T10:21:22.002Z,74.15
2023-01-12T10:22:21.985Z,75.32
2023-01-12T10:23:21.980Z,78.41
2023-01-12T10:24:21.995Z,78.48
2023-01-12T10:25:21.978Z,77.86
2023-01-12T10:26:22.000Z,75.71
2023-01-12T10:27:21.941Z,75.54
2023-01-12T10:28:21.923Z,72.10
2023-01-12T10:29:21.931Z,72.83
2023-01-12T10:30:21.939Z,73.90
2023-01-12T10:31:21.968Z,72.55
2023-01-12T10:32:22.159Z,71.82
2023-01-12T10:33:21.871Z,72.03
2023-01-12T10:34:21.854Z,72.03
2023-01-12T10:35:21.861Z,72.72
2023-01-12T10:36:21.892Z,73.97
2023-01-12T10:37:21.827Z,72.97
2023-01-12T10:38:21.814Z,72.66
2023-01-12T10:39:21.807Z,70.36
2023-01-12T10:40:21.795Z,69.53
2023-01-12T10:41:21.831Z,69.74
2023-01-12T10:42:21.814Z,69.95
2023-01-12T10:43:21.860Z,69.40
2023-01-12T10:44:21.753Z,70.54
2023-01-12T10:45:21.741Z,70.30
2023-01-12T10:46:21.725Z,70.89
2023-01-12T10:47:21.729Z,68.99
2023-01-12T10:48:21.748Z,67.02
2023-01-12T10:49:21.698Z,68.99
2023-01-12T10:50:21.692Z,72.31
2023-01-12T10:51:21.676Z,73.11
2023-01-12T10:52:21.662Z,72.59
2023-01-12T10:53:21.667Z,73.77
2023-01-12T10:54:21.673Z,72.42
2023-01-12T10:55:21.658Z,71.97
2023-01-12T10:56:21.618Z,72.42
2023-01-12T10:57:21.612Z,72.45
2023-01-12T10:58:21.621Z,73.46
2023-01-12T10:59:21.584Z,74.40
2023-01-12T11:00:21.607Z,74.98
2023-01-12T11:01:21.697Z,73.32
2023-01-12T11:02:21.738Z,71.11
2023-01-12T11:03:21.544Z,68.03
2023-01-12T11:04:21.536Z,69.03
2023-01-12T11:05:21.521Z,73.46
2023-01-12T11:06:21.544Z,75.40
2023-01-12T11:07:21.513Z,76.09
2023-01-12T11:08:21.490Z,78.06
2023-01-12T11:09:21.483Z,78.17
2023-01-12T11:10:21.487Z,78.58
2023-01-12T11:11:21.469Z,79.58
2023-01-12T11:12:21.506Z,79.44
2023-01-12T11:13:21.448Z,77.89
2023-01-12T11:14:24.152Z,75.60
2023-01-12T11:15:21.415Z,72.38
2023-01-12T11:16:21.516Z,65.84
2023-01-12T11:17:21.420Z,68.20
2023-01-12T11:18:21.427Z,66.44
2023-01-12T11:19:21.382Z,64.18
2023-01-12T11:20:21.368Z,64.18
2023-01-12T11:21:21.364Z,63.90
2023-01-12T11:22:21.345Z,65.69
2023-01-12T11:23:21.433Z,66.71
2023-01-12T11:24:21.362Z,66.39
2023-01-12T11:25:21.306Z,67.22
2023-01-12T11:26:21.300Z,69.40
2023-01-12T11:27:21.303Z,70.72
2023-01-12T11:28:21.281Z,69.68
2023-01-12T11:29:21.276Z,66.67
2023-01-12T11:30:21.305Z,65.73
2023-01-12T11:31:21.248Z,66.99
2023-01-12T11:32:21.253Z,67.61
2023-01-12T11:33:21.221Z,67.12
2023-01-12T11:34:21.224Z,66.18
2023-01-12T11:35:21.210Z,67.22
2023-01-12T11:36:21.253Z,68.85
2023-01-12T11:37:21.179Z,69.76
2023-01-12T11:38:21.168Z,70.07
2023-01-12T11:39:21.155Z,69.45
2023-01-12T11:40:21.155Z,69.65
2023-01-12T11:41:21.145Z,70.17
2023-01-12T11:42:21.183Z,72.04
2023-01-12T11:43:21.149Z,72.56
2023-01-12T11:44:28.638Z,73.39
2023-01-12T11:45:21.112Z,76.09
2023-01-12T11:46:29.683Z,74.32
2023-01-12T11:47:28.597Z,72.14
2023-01-12T11:48:28.582Z,72.42
2023-01-12T11:49:28.600Z,72.01
2023-01-12T11:50:29.011Z,75.54
2023-01-12T11:51:21.033Z,78.23
2023-01-12T11:52:28.543Z,83.22
2023-01-12T11:53:28.539Z,84.91
2023-01-12T11:54:20.997Z,85.12
2023-01-12T11:55:21.007Z,86.36
2023-01-12T11:56:20.979Z,84.81
2023-01-12T11:57:20.963Z,86.36
2023-01-12T11:58:20.964Z,85.53
2023-01-12T11:59:20.941Z,84.81
2023-01-12T12:00:20.973Z,88.54
2023-01-12T12:01:20.977Z,89.79
2023-01-12T12:02:20.998Z,83.60
2023-01-12T12:03:21.108Z,81.98
2023-01-12T12:04:20.900Z,82.29
2023-01-12T12:05:20.890Z,81.87
2023-01-12T12:06:20.884Z,80.63
2023-01-12T12:07:20.855Z,79.48
2023-01-12T12:08:20.902Z,79.90
2023-01-12T12:09:20.832Z,80.63
2023-01-12T12:10:20.824Z,80.49
2023-01-12T12:11:20.811Z,78.61
2023-01-12T12:12:20.815Z,78.72
2023-01-12T12:13:20.788Z,79.24
2023-01-12T12:14:20.887Z,78.16
2023-01-12T12:15:20.778Z,78.47
2023-01-12T12:16:20.760Z,77.64
2023-01-12T12:17:20.744Z,78.30
2023-01-12T12:18:20.757Z,78.27
2023-01-12T12:19:20.724Z,76.71
2023-01-12T12:20:20.788Z,78.47
2023-01-12T12:21:20.706Z,79.51
2023-01-12T12:22:20.705Z,79.10
2023-01-12T12:23:20.692Z,77.44
2023-01-12T12:24:20.699Z,78.13
2023-01-12T12:25:20.660Z,78.55
2023-01-12T12:26:20.704Z,83.01
2023-01-12T12:27:20.639Z,88.54
2023-01-12T12:28:20.737Z,89.27
2023-01-12T12:29:20.612Z,89.37
2023-01-12T12:30:20.621Z,89.89
2023-01-12T12:31:20.671Z,90.48
2023-01-12T12:32:20.615Z,89.89
2023-01-12T12:33:20.575Z,86.88
2023-01-12T12:34:20.608Z,86.05
2023-01-12T12:35:20.551Z,85.68
2023-01-12T12:36:20.543Z,85.36
2023-01-12T12:37:20.530Z,84.70
2023-01-12T12:38:20.551Z,84.08
2023-01-12T12:39:20.537Z,84.08
2023-01-12T12:40:20.499Z,83.15
2023-01-12T12:41:20.489Z,81.04
2023-01-12T12:42:20.485Z,80.62
2023-01-12T12:43:20.466Z,78.44
2023-01-12T12:44:20.484Z,76.50
2023-01-12T12:45:20.458Z,74.32
2023-01-12T12:46:20.500Z,75.85
2023-01-12T12:47:20.426Z,75.50
2023-01-12T12:48:20.418Z,75.40
2023-01-12T12:49:20.416Z,73.74
2023-01-12T12:50:20.424Z,72.91
2023-01-12T12:51:20.392Z,73.43
2023-01-12T12:52:20.373Z,75.78